sensor_id;sensor_type;location;lat;lon;timestamp;temperature;humidity
20492;DHT22;10404;51.468;6.762;2023-12-20T00:00:17;6.50;90.90
20492;DHT22;10404;51.468;6.762;2023-12-20T00:02:43;6.50;90.90
20492;DHT22;10404;51.468;6.762;2023-12-20T00:05:13;6.50;90.90
20492;DHT22;10404;51.468;6.762;2023-12-20T00:07:38;6.50;90.90
20492;DHT22;10404;51.468;6.762;2023-12-20T00:10:04;6.50;90.90
20492;DHT22;10404;51.468;6.762;2023-12-20T00:12:30;6.50;90.90
20492;DHT22;10404;51.468;6.762;2023-12-20T00:14:55;6.50;90.90
20492;DHT22;10404;51.468;6.762;2023-12-20T00:17:21;6.50;90.80
20492;DHT22;10404;51.468;6.762;2023-12-20T00:19:46;6.50;90.90
20492;DHT22;10404;51.468;6.762;2023-12-20T00:22:12;6.50;90.70
20492;DHT22;10404;51.468;6.762;2023-12-20T00:24:37;6.50;90.60
20492;DHT22;10404;51.468;6.762;2023-12-20T00:27:03;6.40;90.50
20492;DHT22;10404;51.468;6.762;2023-12-20T00:29:32;6.40;90.50
20492;DHT22;10404;51.468;6.762;2023-12-20T00:31:57;6.40;90.40
20492;DHT22;10404;51.468;6.762;2023-12-20T00:34:23;6.40;90.50
20492;DHT22;10404;51.468;6.762;2023-12-20T00:36:48;6.40;90.40
20492;DHT22;10404;51.468;6.762;2023-12-20T00:39:14;6.40;90.40
20492;DHT22;10404;51.468;6.762;2023-12-20T00:41:39;6.40;90.40
20492;DHT22;10404;51.468;6.762;2023-12-20T00:44:05;6.40;90.30
20492;DHT22;10404;51.468;6.762;2023-12-20T00:46:30;6.40;90.30
20492;DHT22;10404;51.468;6.762;2023-12-20T00:48:56;6.40;90.20
20492;DHT22;10404;51.468;6.762;2023-12-20T00:51:22;6.30;90.20
20492;DHT22;10404;51.468;6.762;2023-12-20T00:53:49;6.30;90.30
20492;DHT22;10404;51.468;6.762;2023-12-20T00:56:15;6.30;90.30
20492;DHT22;10404;51.468;6.762;2023-12-20T00:58:41;6.30;90.20
20492;DHT22;10404;51.468;6.762;2023-12-20T01:01:06;6.30;90.20
20492;DHT22;10404;51.468;6.762;2023-12-20T01:03:32;6.30;90.10
20492;DHT22;10404;51.468;6.762;2023-12-20T01:05:57;6.30;90.10
20492;DHT22;10404;51.468;6.762;2023-12-20T01:08:23;6.30;90.00
20492;DHT22;10404;51.468;6.762;2023-12-20T01:10:48;6.30;90.00
20492;DHT22;10404;51.468;6.762;2023-12-20T01:13:14;6.30;89.90
20492;DHT22;10404;51.468;6.762;2023-12-20T01:15:40;6.30;89.90
20492;DHT22;10404;51.468;6.762;2023-12-20T01:18:05;6.30;89.80
20492;DHT22;10404;51.468;6.762;2023-12-20T01:20:31;6.30;89.80
20492;DHT22;10404;51.468;6.762;2023-12-20T01:22:56;6.30;89.90
20492;DHT22;10404;51.468;6.762;2023-12-20T01:25:22;6.20;89.80
20492;DHT22;10404;51.468;6.762;2023-12-20T01:27:48;6.30;89.90
20492;DHT22;10404;51.468;6.762;2023-12-20T01:30:14;6.30;89.80
20492;DHT22;10404;51.468;6.762;2023-12-20T01:32:39;6.30;89.80
20492;DHT22;10404;51.468;6.762;2023-12-20T01:35:05;6.20;89.70
20492;DHT22;10404;51.468;6.762;2023-12-20T01:37:31;6.20;89.70
20492;DHT22;10404;51.468;6.762;2023-12-20T01:39:56;6.20;89.70
20492;DHT22;10404;51.468;6.762;2023-12-20T01:42:22;6.20;89.70
20492;DHT22;10404;51.468;6.762;2023-12-20T01:44:48;6.20;89.70
20492;DHT22;10404;51.468;6.762;2023-12-20T01:47:14;6.20;89.70
20492;DHT22;10404;51.468;6.762;2023-12-20T01:49:40;6.20;89.70
20492;DHT22;10404;51.468;6.762;2023-12-20T01:52:06;6.20;89.70
20492;DHT22;10404;51.468;6.762;2023-12-20T01:54:32;6.20;89.80
20492;DHT22;10404;51.468;6.762;2023-12-20T01:56:58;6.20;89.80
20492;DHT22;10404;51.468;6.762;2023-12-20T01:59:24;6.20;89.80
20492;DHT22;10404;51.468;6.762;2023-12-20T02:01:49;6.10;89.70
20492;DHT22;10404;51.468;6.762;2023-12-20T02:04:15;6.10;89.70
20492;DHT22;10404;51.468;6.762;2023-12-20T02:06:42;6.10;89.70
20492;DHT22;10404;51.468;6.762;2023-12-20T02:09:09;6.10;89.70
20492;DHT22;10404;51.468;6.762;2023-12-20T02:11:36;6.10;89.60
20492;DHT22;10404;51.468;6.762;2023-12-20T02:14:01;6.10;89.60
20492;DHT22;10404;51.468;6.762;2023-12-20T02:16:27;6.10;89.60
20492;DHT22;10404;51.468;6.762;2023-12-20T02:18:53;6.10;89.60
20492;DHT22;10404;51.468;6.762;2023-12-20T02:21:33;6.10;89.50
20492;DHT22;10404;51.468;6.762;2023-12-20T02:24:00;6.00;89.60
20492;DHT22;10404;51.468;6.762;2023-12-20T02:26:25;6.00;89.60
20492;DHT22;10404;51.468;6.762;2023-12-20T02:28:51;6.00;89.60
20492;DHT22;10404;51.468;6.762;2023-12-20T02:31:21;6.00;89.50
20492;DHT22;10404;51.468;6.762;2023-12-20T02:33:47;6.00;89.50
20492;DHT22;10404;51.468;6.762;2023-12-20T02:36:13;6.00;89.50
20492;DHT22;10404;51.468;6.762;2023-12-20T02:38:38;6.00;89.50
20492;DHT22;10404;51.468;6.762;2023-12-20T02:41:04;6.00;89.50
20492;DHT22;10404;51.468;6.762;2023-12-20T02:43:29;5.90;89.50
20492;DHT22;10404;51.468;6.762;2023-12-20T02:45:55;6.00;89.40
20492;DHT22;10404;51.468;6.762;2023-12-20T02:48:20;5.90;89.40
20492;DHT22;10404;51.468;6.762;2023-12-20T02:50:47;5.90;89.40
20492;DHT22;10404;51.468;6.762;2023-12-20T02:53:13;5.90;89.40
20492;DHT22;10404;51.468;6.762;2023-12-20T02:55:39;5.90;89.40
20492;DHT22;10404;51.468;6.762;2023-12-20T02:58:04;5.80;89.30
20492;DHT22;10404;51.468;6.762;2023-12-20T03:00:30;5.80;89.30
20492;DHT22;10404;51.468;6.762;2023-12-20T03:02:55;5.80;89.20
20492;DHT22;10404;51.468;6.762;2023-12-20T03:05:21;5.80;89.30
20492;DHT22;10404;51.468;6.762;2023-12-20T03:07:46;5.80;89.20
20492;DHT22;10404;51.468;6.762;2023-12-20T03:10:12;5.80;89.20
20492;DHT22;10404;51.468;6.762;2023-12-20T03:12:37;5.80;89.10
20492;DHT22;10404;51.468;6.762;2023-12-20T03:15:03;5.80;89.20
20492;DHT22;10404;51.468;6.762;2023-12-20T03:17:29;5.70;89.20
20492;DHT22;10404;51.468;6.762;2023-12-20T03:19:54;5.70;89.20
20492;DHT22;10404;51.468;6.762;2023-12-20T03:22:20;5.70;89.20
20492;DHT22;10404;51.468;6.762;2023-12-20T03:24:45;5.70;89.10
20492;DHT22;10404;51.468;6.762;2023-12-20T03:27:11;5.70;89.10
20492;DHT22;10404;51.468;6.762;2023-12-20T03:29:36;5.70;89.10
20492;DHT22;10404;51.468;6.762;2023-12-20T03:32:02;5.70;89.10
20492;DHT22;10404;51.468;6.762;2023-12-20T03:34:28;5.70;89.10
20492;DHT22;10404;51.468;6.762;2023-12-20T03:36:54;5.60;89.10
20492;DHT22;10404;51.468;6.762;2023-12-20T03:39:20;5.60;89.10
20492;DHT22;10404;51.468;6.762;2023-12-20T03:41:45;5.60;89.00
20492;DHT22;10404;51.468;6.762;2023-12-20T03:44:11;5.60;89.00
20492;DHT22;10404;51.468;6.762;2023-12-20T03:46:36;5.60;89.00
20492;DHT22;10404;51.468;6.762;2023-12-20T03:49:02;5.60;89.00
20492;DHT22;10404;51.468;6.762;2023-12-20T03:51:27;5.60;89.00
20492;DHT22;10404;51.468;6.762;2023-12-20T03:53:53;5.60;89.00
20492;DHT22;10404;51.468;6.762;2023-12-20T03:56:18;5.60;89.00
20492;DHT22;10404;51.468;6.762;2023-12-20T03:58:44;5.60;89.00
20492;DHT22;10404;51.468;6.762;2023-12-20T04:01:10;5.50;88.90
20492;DHT22;10404;51.468;6.762;2023-12-20T04:03:38;5.50;89.00
20492;DHT22;10404;51.468;6.762;2023-12-20T04:06:04;5.50;88.90
20492;DHT22;10404;51.468;6.762;2023-12-20T04:08:29;5.50;88.90
20492;DHT22;10404;51.468;6.762;2023-12-20T04:10:55;5.50;88.90
20492;DHT22;10404;51.468;6.762;2023-12-20T04:13:20;5.50;88.90
20492;DHT22;10404;51.468;6.762;2023-12-20T04:15:46;5.50;88.90
20492;DHT22;10404;51.468;6.762;2023-12-20T04:18:11;5.50;88.90
20492;DHT22;10404;51.468;6.762;2023-12-20T04:20:37;5.50;88.90
20492;DHT22;10404;51.468;6.762;2023-12-20T04:23:02;5.50;88.90
20492;DHT22;10404;51.468;6.762;2023-12-20T04:25:28;5.40;88.90
20492;DHT22;10404;51.468;6.762;2023-12-20T04:27:54;5.50;88.80
20492;DHT22;10404;51.468;6.762;2023-12-20T04:30:19;5.40;88.90
20492;DHT22;10404;51.468;6.762;2023-12-20T04:32:45;5.40;88.80
20492;DHT22;10404;51.468;6.762;2023-12-20T04:35:10;5.40;88.80
20492;DHT22;10404;51.468;6.762;2023-12-20T04:37:36;5.30;88.80
20492;DHT22;10404;51.468;6.762;2023-12-20T04:40:01;5.30;88.70
20492;DHT22;10404;51.468;6.762;2023-12-20T04:42:27;5.40;88.80
20492;DHT22;10404;51.468;6.762;2023-12-20T04:44:53;5.30;88.80
20492;DHT22;10404;51.468;6.762;2023-12-20T04:47:18;5.30;88.70
20492;DHT22;10404;51.468;6.762;2023-12-20T04:49:44;5.30;88.80
20492;DHT22;10404;51.468;6.762;2023-12-20T04:52:09;5.30;88.80
20492;DHT22;10404;51.468;6.762;2023-12-20T04:54:35;5.30;88.70
20492;DHT22;10404;51.468;6.762;2023-12-20T04:57:00;5.30;88.70
20492;DHT22;10404;51.468;6.762;2023-12-20T04:59:26;5.30;88.80
20492;DHT22;10404;51.468;6.762;2023-12-20T05:01:51;5.30;88.70
20492;DHT22;10404;51.468;6.762;2023-12-20T05:04:17;5.30;88.70
20492;DHT22;10404;51.468;6.762;2023-12-20T05:06:42;5.30;88.70
20492;DHT22;10404;51.468;6.762;2023-12-20T05:09:08;5.30;88.60
20492;DHT22;10404;51.468;6.762;2023-12-20T05:11:34;5.30;88.60
20492;DHT22;10404;51.468;6.762;2023-12-20T05:14:00;5.30;88.60
20492;DHT22;10404;51.468;6.762;2023-12-20T05:16:25;5.30;88.70
20492;DHT22;10404;51.468;6.762;2023-12-20T05:18:51;5.30;88.60
20492;DHT22;10404;51.468;6.762;2023-12-20T05:21:17;5.30;88.60
20492;DHT22;10404;51.468;6.762;2023-12-20T05:23:43;5.30;88.70
20492;DHT22;10404;51.468;6.762;2023-12-20T05:26:08;5.30;88.70
20492;DHT22;10404;51.468;6.762;2023-12-20T05:28:34;5.30;88.60
20492;DHT22;10404;51.468;6.762;2023-12-20T05:30:59;5.20;88.60
20492;DHT22;10404;51.468;6.762;2023-12-20T05:33:25;5.30;88.60
20492;DHT22;10404;51.468;6.762;2023-12-20T05:35:51;5.20;88.60
20492;DHT22;10404;51.468;6.762;2023-12-20T05:38:16;5.20;88.60
20492;DHT22;10404;51.468;6.762;2023-12-20T05:40:42;5.20;88.60
20492;DHT22;10404;51.468;6.762;2023-12-20T05:43:08;5.20;88.60
20492;DHT22;10404;51.468;6.762;2023-12-20T05:45:33;5.20;88.60
20492;DHT22;10404;51.468;6.762;2023-12-20T05:47:59;5.20;88.60
20492;DHT22;10404;51.468;6.762;2023-12-20T05:50:25;5.20;88.60
20492;DHT22;10404;51.468;6.762;2023-12-20T05:52:52;5.10;88.60
20492;DHT22;10404;51.468;6.762;2023-12-20T05:55:17;5.20;88.60
20492;DHT22;10404;51.468;6.762;2023-12-20T05:57:43;5.10;88.60
20492;DHT22;10404;51.468;6.762;2023-12-20T06:00:09;5.10;88.60
20492;DHT22;10404;51.468;6.762;2023-12-20T06:02:35;5.10;88.60
20492;DHT22;10404;51.468;6.762;2023-12-20T06:05:03;5.10;88.60
20492;DHT22;10404;51.468;6.762;2023-12-20T06:07:29;5.10;88.60
20492;DHT22;10404;51.468;6.762;2023-12-20T06:09:55;5.10;88.70
20492;DHT22;10404;51.468;6.762;2023-12-20T06:12:20;5.10;88.60
20492;DHT22;10404;51.468;6.762;2023-12-20T06:14:46;5.10;88.50
20492;DHT22;10404;51.468;6.762;2023-12-20T06:17:11;5.10;88.60
20492;DHT22;10404;51.468;6.762;2023-12-20T06:19:37;5.10;88.50
20492;DHT22;10404;51.468;6.762;2023-12-20T06:22:02;5.10;88.50
20492;DHT22;10404;51.468;6.762;2023-12-20T06:24:28;5.10;88.50
20492;DHT22;10404;51.468;6.762;2023-12-20T06:26:54;5.10;88.60
20492;DHT22;10404;51.468;6.762;2023-12-20T06:29:20;5.10;88.60
20492;DHT22;10404;51.468;6.762;2023-12-20T06:31:46;5.10;88.60
20492;DHT22;10404;51.468;6.762;2023-12-20T06:34:11;5.10;88.60
20492;DHT22;10404;51.468;6.762;2023-12-20T06:36:37;5.10;88.60
20492;DHT22;10404;51.468;6.762;2023-12-20T06:39:02;5.10;88.60
20492;DHT22;10404;51.468;6.762;2023-12-20T06:41:30;5.10;88.60
20492;DHT22;10404;51.468;6.762;2023-12-20T06:43:55;5.10;88.60
20492;DHT22;10404;51.468;6.762;2023-12-20T06:46:21;5.10;88.60
20492;DHT22;10404;51.468;6.762;2023-12-20T06:48:46;5.10;88.60
20492;DHT22;10404;51.468;6.762;2023-12-20T06:51:14;5.10;88.60
20492;DHT22;10404;51.468;6.762;2023-12-20T06:53:40;5.10;88.60
20492;DHT22;10404;51.468;6.762;2023-12-20T06:56:06;5.10;88.60
20492;DHT22;10404;51.468;6.762;2023-12-20T06:58:32;5.10;88.60
20492;DHT22;10404;51.468;6.762;2023-12-20T07:00:58;5.10;88.60
20492;DHT22;10404;51.468;6.762;2023-12-20T07:03:23;5.10;88.50
20492;DHT22;10404;51.468;6.762;2023-12-20T07:05:49;5.10;88.60
20492;DHT22;10404;51.468;6.762;2023-12-20T07:08:15;5.10;88.50
20492;DHT22;10404;51.468;6.762;2023-12-20T07:10:41;5.10;88.60
20492;DHT22;10404;51.468;6.762;2023-12-20T07:13:07;5.10;88.60
20492;DHT22;10404;51.468;6.762;2023-12-20T07:15:33;5.10;88.60
20492;DHT22;10404;51.468;6.762;2023-12-20T07:17:58;5.10;88.60
20492;DHT22;10404;51.468;6.762;2023-12-20T07:20:26;5.10;88.60
20492;DHT22;10404;51.468;6.762;2023-12-20T07:22:51;5.10;88.60
20492;DHT22;10404;51.468;6.762;2023-12-20T07:25:17;5.10;88.50
20492;DHT22;10404;51.468;6.762;2023-12-20T07:27:43;5.10;88.50
20492;DHT22;10404;51.468;6.762;2023-12-20T07:30:09;5.10;88.50
20492;DHT22;10404;51.468;6.762;2023-12-20T07:32:34;5.10;88.50
20492;DHT22;10404;51.468;6.762;2023-12-20T07:35:01;5.10;88.50
20492;DHT22;10404;51.468;6.762;2023-12-20T07:37:28;5.10;88.50
20492;DHT22;10404;51.468;6.762;2023-12-20T07:39:53;5.10;88.50
20492;DHT22;10404;51.468;6.762;2023-12-20T07:42:19;5.10;88.50
20492;DHT22;10404;51.468;6.762;2023-12-20T07:44:45;5.10;88.50
20492;DHT22;10404;51.468;6.762;2023-12-20T07:47:11;5.10;88.50
20492;DHT22;10404;51.468;6.762;2023-12-20T07:49:40;5.10;88.50
20492;DHT22;10404;51.468;6.762;2023-12-20T07:52:06;5.10;88.50
20492;DHT22;10404;51.468;6.762;2023-12-20T07:54:32;5.10;88.50
20492;DHT22;10404;51.468;6.762;2023-12-20T07:56:57;5.10;88.50
20492;DHT22;10404;51.468;6.762;2023-12-20T07:59:23;5.10;88.40
20492;DHT22;10404;51.468;6.762;2023-12-20T08:01:48;5.10;88.40
20492;DHT22;10404;51.468;6.762;2023-12-20T08:04:14;5.10;88.40
20492;DHT22;10404;51.468;6.762;2023-12-20T08:06:39;5.10;88.50
20492;DHT22;10404;51.468;6.762;2023-12-20T08:09:05;5.20;88.50
20492;DHT22;10404;51.468;6.762;2023-12-20T08:11:30;5.20;88.50
20492;DHT22;10404;51.468;6.762;2023-12-20T08:13:59;5.20;88.50
20492;DHT22;10404;51.468;6.762;2023-12-20T08:16:26;5.20;88.50
20492;DHT22;10404;51.468;6.762;2023-12-20T08:18:51;5.10;88.50
20492;DHT22;10404;51.468;6.762;2023-12-20T08:21:17;5.20;88.50
20492;DHT22;10404;51.468;6.762;2023-12-20T08:23:45;5.20;88.60
20492;DHT22;10404;51.468;6.762;2023-12-20T08:26:11;5.10;88.50
20492;DHT22;10404;51.468;6.762;2023-12-20T08:28:37;5.20;88.60
20492;DHT22;10404;51.468;6.762;2023-12-20T08:31:02;5.10;88.50
20492;DHT22;10404;51.468;6.762;2023-12-20T08:33:28;5.20;88.60
20492;DHT22;10404;51.468;6.762;2023-12-20T08:35:54;5.20;88.50
20492;DHT22;10404;51.468;6.762;2023-12-20T08:38:19;5.20;88.50
20492;DHT22;10404;51.468;6.762;2023-12-20T08:40:45;5.20;88.50
20492;DHT22;10404;51.468;6.762;2023-12-20T08:43:10;5.20;88.50
20492;DHT22;10404;51.468;6.762;2023-12-20T08:45:36;5.20;88.50
20492;DHT22;10404;51.468;6.762;2023-12-20T08:48:02;5.20;88.50
20492;DHT22;10404;51.468;6.762;2023-12-20T08:50:31;5.20;88.40
20492;DHT22;10404;51.468;6.762;2023-12-20T08:52:56;5.30;88.40
20492;DHT22;10404;51.468;6.762;2023-12-20T08:55:22;5.30;88.40
20492;DHT22;10404;51.468;6.762;2023-12-20T08:57:48;5.20;88.40
20492;DHT22;10404;51.468;6.762;2023-12-20T09:00:14;5.30;88.40
20492;DHT22;10404;51.468;6.762;2023-12-20T09:02:40;5.30;88.50
20492;DHT22;10404;51.468;6.762;2023-12-20T09:05:06;5.30;88.50
20492;DHT22;10404;51.468;6.762;2023-12-20T09:07:32;5.30;88.40
20492;DHT22;10404;51.468;6.762;2023-12-20T09:09:58;5.30;88.40
20492;DHT22;10404;51.468;6.762;2023-12-20T09:12:24;5.30;88.40
20492;DHT22;10404;51.468;6.762;2023-12-20T09:14:51;5.30;88.40
20492;DHT22;10404;51.468;6.762;2023-12-20T09:17:17;5.30;88.40
20492;DHT22;10404;51.468;6.762;2023-12-20T09:19:44;5.30;88.40
20492;DHT22;10404;51.468;6.762;2023-12-20T09:22:10;5.30;88.40
20492;DHT22;10404;51.468;6.762;2023-12-20T09:24:35;5.30;88.40
20492;DHT22;10404;51.468;6.762;2023-12-20T09:27:01;5.30;88.40
20492;DHT22;10404;51.468;6.762;2023-12-20T09:29:27;5.30;88.40
20492;DHT22;10404;51.468;6.762;2023-12-20T09:31:53;5.30;88.50
20492;DHT22;10404;51.468;6.762;2023-12-20T09:34:18;5.30;88.40
20492;DHT22;10404;51.468;6.762;2023-12-20T09:36:44;5.30;88.40
20492;DHT22;10404;51.468;6.762;2023-12-20T09:39:13;5.30;88.40
20492;DHT22;10404;51.468;6.762;2023-12-20T09:41:43;5.30;88.50
20492;DHT22;10404;51.468;6.762;2023-12-20T09:44:15;5.30;88.40
20492;DHT22;10404;51.468;6.762;2023-12-20T09:46:44;5.30;88.50
20492;DHT22;10404;51.468;6.762;2023-12-20T09:49:10;5.30;88.50
20492;DHT22;10404;51.468;6.762;2023-12-20T09:51:36;5.30;88.40
20492;DHT22;10404;51.468;6.762;2023-12-20T09:54:03;5.30;88.40
20492;DHT22;10404;51.468;6.762;2023-12-20T09:56:30;5.30;88.50
20492;DHT22;10404;51.468;6.762;2023-12-20T09:58:56;5.30;88.50
20492;DHT22;10404;51.468;6.762;2023-12-20T10:01:22;5.30;88.40
20492;DHT22;10404;51.468;6.762;2023-12-20T10:03:48;5.30;88.40
20492;DHT22;10404;51.468;6.762;2023-12-20T10:06:15;5.30;88.40
20492;DHT22;10404;51.468;6.762;2023-12-20T10:08:41;5.30;88.50
20492;DHT22;10404;51.468;6.762;2023-12-20T10:11:07;5.40;88.40
20492;DHT22;10404;51.468;6.762;2023-12-20T10:13:32;5.40;88.40
20492;DHT22;10404;51.468;6.762;2023-12-20T10:15:59;5.40;88.40
20492;DHT22;10404;51.468;6.762;2023-12-20T10:18:26;5.40;88.40
20492;DHT22;10404;51.468;6.762;2023-12-20T10:20:54;5.50;88.50
20492;DHT22;10404;51.468;6.762;2023-12-20T10:23:19;5.50;88.40
20492;DHT22;10404;51.468;6.762;2023-12-20T10:25:56;5.50;88.50
20492;DHT22;10404;51.468;6.762;2023-12-20T10:28:22;5.50;88.50
20492;DHT22;10404;51.468;6.762;2023-12-20T10:30:50;5.50;88.50
20492;DHT22;10404;51.468;6.762;2023-12-20T10:33:29;5.50;88.50
20492;DHT22;10404;51.468;6.762;2023-12-20T10:35:56;5.50;88.40
20492;DHT22;10404;51.468;6.762;2023-12-20T10:38:21;5.50;88.40
20492;DHT22;10404;51.468;6.762;2023-12-20T10:40:47;5.50;88.40
20492;DHT22;10404;51.468;6.762;2023-12-20T10:43:13;5.50;88.60
20492;DHT22;10404;51.468;6.762;2023-12-20T10:45:41;5.50;88.70
20492;DHT22;10404;51.468;6.762;2023-12-20T10:48:10;5.50;88.60
20492;DHT22;10404;51.468;6.762;2023-12-20T10:50:38;5.50;88.60
20492;DHT22;10404;51.468;6.762;2023-12-20T10:53:04;5.50;88.70
20492;DHT22;10404;51.468;6.762;2023-12-20T10:55:30;5.50;88.70
20492;DHT22;10404;51.468;6.762;2023-12-20T10:58:03;5.60;88.90
20492;DHT22;10404;51.468;6.762;2023-12-20T11:00:32;5.60;88.90
20492;DHT22;10404;51.468;6.762;2023-12-20T11:03:00;5.60;88.90
20492;DHT22;10404;51.468;6.762;2023-12-20T11:05:39;5.60;88.80
20492;DHT22;10404;51.468;6.762;2023-12-20T11:08:09;5.60;88.80
20492;DHT22;10404;51.468;6.762;2023-12-20T11:10:46;5.60;88.70
20492;DHT22;10404;51.468;6.762;2023-12-20T11:13:20;5.60;88.80
20492;DHT22;10404;51.468;6.762;2023-12-20T11:15:48;5.60;89.00
20492;DHT22;10404;51.468;6.762;2023-12-20T11:18:14;5.60;88.90
20492;DHT22;10404;51.468;6.762;2023-12-20T11:20:41;5.60;89.00
20492;DHT22;10404;51.468;6.762;2023-12-20T11:23:10;5.70;89.00
20492;DHT22;10404;51.468;6.762;2023-12-20T11:25:52;5.70;89.00
20492;DHT22;10404;51.468;6.762;2023-12-20T11:28:23;5.70;88.90
20492;DHT22;10404;51.468;6.762;2023-12-20T11:30:54;5.70;89.00
20492;DHT22;10404;51.468;6.762;2023-12-20T11:33:24;5.70;89.00
20492;DHT22;10404;51.468;6.762;2023-12-20T11:35:50;5.70;89.00
20492;DHT22;10404;51.468;6.762;2023-12-20T11:38:16;5.70;89.00
20492;DHT22;10404;51.468;6.762;2023-12-20T11:40:42;5.80;89.00
20492;DHT22;10404;51.468;6.762;2023-12-20T11:43:09;5.80;89.00
20492;DHT22;10404;51.468;6.762;2023-12-20T11:45:35;5.80;89.00
20492;DHT22;10404;51.468;6.762;2023-12-20T11:48:02;5.80;89.00
20492;DHT22;10404;51.468;6.762;2023-12-20T11:50:28;5.80;89.00
20492;DHT22;10404;51.468;6.762;2023-12-20T11:52:55;5.80;89.10
20492;DHT22;10404;51.468;6.762;2023-12-20T11:55:24;5.80;89.10
20492;DHT22;10404;51.468;6.762;2023-12-20T11:57:50;5.80;89.00
20492;DHT22;10404;51.468;6.762;2023-12-20T12:00:17;5.80;89.10
20492;DHT22;10404;51.468;6.762;2023-12-20T12:02:43;5.80;89.00
20492;DHT22;10404;51.468;6.762;2023-12-20T12:05:09;5.80;89.20
20492;DHT22;10404;51.468;6.762;2023-12-20T12:07:34;5.80;89.10
20492;DHT22;10404;51.468;6.762;2023-12-20T12:10:00;5.80;89.20
20492;DHT22;10404;51.468;6.762;2023-12-20T12:12:26;5.80;89.20
20492;DHT22;10404;51.468;6.762;2023-12-20T12:14:53;5.80;89.10
20492;DHT22;10404;51.468;6.762;2023-12-20T12:17:18;5.90;89.20
20492;DHT22;10404;51.468;6.762;2023-12-20T12:19:44;5.90;89.30
20492;DHT22;10404;51.468;6.762;2023-12-20T12:22:14;5.90;89.30
20492;DHT22;10404;51.468;6.762;2023-12-20T12:24:45;5.90;89.20
20492;DHT22;10404;51.468;6.762;2023-12-20T12:27:12;5.90;89.20
20492;DHT22;10404;51.468;6.762;2023-12-20T12:29:38;5.90;89.20
20492;DHT22;10404;51.468;6.762;2023-12-20T12:32:08;5.90;89.30
20492;DHT22;10404;51.468;6.762;2023-12-20T12:34:35;5.90;89.20
20492;DHT22;10404;51.468;6.762;2023-12-20T12:37:01;5.90;89.20
20492;DHT22;10404;51.468;6.762;2023-12-20T12:39:27;5.90;89.10
20492;DHT22;10404;51.468;6.762;2023-12-20T12:41:55;6.00;89.10
20492;DHT22;10404;51.468;6.762;2023-12-20T12:44:21;6.00;89.10
20492;DHT22;10404;51.468;6.762;2023-12-20T12:46:49;6.00;89.10
20492;DHT22;10404;51.468;6.762;2023-12-20T12:49:21;6.00;89.10
20492;DHT22;10404;51.468;6.762;2023-12-20T12:51:47;5.90;89.10
20492;DHT22;10404;51.468;6.762;2023-12-20T12:54:13;6.00;89.10
20492;DHT22;10404;51.468;6.762;2023-12-20T12:56:39;6.00;89.00
20492;DHT22;10404;51.468;6.762;2023-12-20T12:59:05;6.00;89.10
20492;DHT22;10404;51.468;6.762;2023-12-20T13:01:31;6.00;89.00
20492;DHT22;10404;51.468;6.762;2023-12-20T13:03:56;6.00;89.10
20492;DHT22;10404;51.468;6.762;2023-12-20T13:06:22;6.00;89.00
20492;DHT22;10404;51.468;6.762;2023-12-20T13:08:48;6.00;89.10
20492;DHT22;10404;51.468;6.762;2023-12-20T13:11:13;6.00;89.10
20492;DHT22;10404;51.468;6.762;2023-12-20T13:13:39;6.00;89.10
20492;DHT22;10404;51.468;6.762;2023-12-20T13:16:05;6.00;89.10
20492;DHT22;10404;51.468;6.762;2023-12-20T13:18:30;6.00;89.10
20492;DHT22;10404;51.468;6.762;2023-12-20T13:20:56;6.00;89.10
20492;DHT22;10404;51.468;6.762;2023-12-20T13:23:21;6.00;89.10
20492;DHT22;10404;51.468;6.762;2023-12-20T13:25:47;6.00;89.10
20492;DHT22;10404;51.468;6.762;2023-12-20T13:28:13;6.00;89.20
20492;DHT22;10404;51.468;6.762;2023-12-20T13:30:39;6.00;89.20
20492;DHT22;10404;51.468;6.762;2023-12-20T13:33:05;6.00;89.20
20492;DHT22;10404;51.468;6.762;2023-12-20T13:35:31;6.00;89.30
20492;DHT22;10404;51.468;6.762;2023-12-20T13:37:58;6.00;89.40
20492;DHT22;10404;51.468;6.762;2023-12-20T13:40:23;6.00;89.40
20492;DHT22;10404;51.468;6.762;2023-12-20T13:42:49;6.00;89.30
20492;DHT22;10404;51.468;6.762;2023-12-20T13:45:15;6.00;89.30
20492;DHT22;10404;51.468;6.762;2023-12-20T13:47:40;6.00;89.40
20492;DHT22;10404;51.468;6.762;2023-12-20T13:50:06;6.00;89.40
20492;DHT22;10404;51.468;6.762;2023-12-20T13:52:32;6.00;89.50
20492;DHT22;10404;51.468;6.762;2023-12-20T13:54:57;6.00;89.30
20492;DHT22;10404;51.468;6.762;2023-12-20T13:57:23;6.00;89.50
20492;DHT22;10404;51.468;6.762;2023-12-20T13:59:48;6.00;89.50
20492;DHT22;10404;51.468;6.762;2023-12-20T14:02:14;6.00;89.50
20492;DHT22;10404;51.468;6.762;2023-12-20T14:04:44;6.00;89.60
20492;DHT22;10404;51.468;6.762;2023-12-20T14:07:10;6.00;89.60
20492;DHT22;10404;51.468;6.762;2023-12-20T14:09:36;6.00;89.50
20492;DHT22;10404;51.468;6.762;2023-12-20T14:12:01;6.00;89.60
20492;DHT22;10404;51.468;6.762;2023-12-20T14:14:27;6.00;89.60
20492;DHT22;10404;51.468;6.762;2023-12-20T14:16:53;6.00;89.60
20492;DHT22;10404;51.468;6.762;2023-12-20T14:19:18;6.00;89.70
20492;DHT22;10404;51.468;6.762;2023-12-20T14:21:44;6.00;89.70
20492;DHT22;10404;51.468;6.762;2023-12-20T14:24:15;5.90;89.70
20492;DHT22;10404;51.468;6.762;2023-12-20T14:26:43;5.90;89.70
20492;DHT22;10404;51.468;6.762;2023-12-20T14:29:09;6.00;89.70
20492;DHT22;10404;51.468;6.762;2023-12-20T14:31:34;5.90;89.70
20492;DHT22;10404;51.468;6.762;2023-12-20T14:34:00;5.90;89.70
20492;DHT22;10404;51.468;6.762;2023-12-20T14:36:29;6.00;89.70
20492;DHT22;10404;51.468;6.762;2023-12-20T14:38:56;5.90;89.70
20492;DHT22;10404;51.468;6.762;2023-12-20T14:41:21;5.90;89.60
20492;DHT22;10404;51.468;6.762;2023-12-20T14:43:50;5.90;89.60
20492;DHT22;10404;51.468;6.762;2023-12-20T14:46:17;5.90;89.70
20492;DHT22;10404;51.468;6.762;2023-12-20T14:48:42;6.00;89.70
20492;DHT22;10404;51.468;6.762;2023-12-20T14:51:08;6.00;89.70
20492;DHT22;10404;51.468;6.762;2023-12-20T14:53:34;6.00;89.70
20492;DHT22;10404;51.468;6.762;2023-12-20T14:56:03;6.00;89.60
20492;DHT22;10404;51.468;6.762;2023-12-20T14:58:29;5.90;89.70
20492;DHT22;10404;51.468;6.762;2023-12-20T15:00:55;6.00;89.60
20492;DHT22;10404;51.468;6.762;2023-12-20T15:03:21;5.90;89.70
20492;DHT22;10404;51.468;6.762;2023-12-20T15:05:47;5.90;89.70
20492;DHT22;10404;51.468;6.762;2023-12-20T15:08:13;5.90;89.70
20492;DHT22;10404;51.468;6.762;2023-12-20T15:10:39;6.00;89.70
20492;DHT22;10404;51.468;6.762;2023-12-20T15:13:04;6.00;89.70
20492;DHT22;10404;51.468;6.762;2023-12-20T15:15:30;6.00;89.70
20492;DHT22;10404;51.468;6.762;2023-12-20T15:17:57;5.90;89.70
20492;DHT22;10404;51.468;6.762;2023-12-20T15:20:23;6.00;89.60
20492;DHT22;10404;51.468;6.762;2023-12-20T15:22:48;6.00;89.60
20492;DHT22;10404;51.468;6.762;2023-12-20T15:25:14;6.00;89.60
20492;DHT22;10404;51.468;6.762;2023-12-20T15:27:47;6.00;89.70
20492;DHT22;10404;51.468;6.762;2023-12-20T15:30:14;6.00;89.60
20492;DHT22;10404;51.468;6.762;2023-12-20T15:32:40;6.00;89.70
20492;DHT22;10404;51.468;6.762;2023-12-20T15:35:06;6.00;89.70
20492;DHT22;10404;51.468;6.762;2023-12-20T15:37:32;6.00;89.70